Time;durP1;ratioP1;P1;durP2;ratioP2;P2;SDS_P1;SDS_P2;PMS_P1;PMS_P2;Temp;Humidity;BMP_temperature;BMP_pressure;BME280_temperature;BME280_humidity;BME280_pressure;Samples;Min_cycle;Max_cycle;Signal;HPM_P1;HPM_P2
2022/10/30 00:00:24;;;;;;;18.67;6.93;;;;;;;19.84;64.29;101688.22;5011820;28;20095;-44
2022/10/30 00:02:49;;;;;;;16.30;7.22;;;;;;;19.81;64.73;101698.88;5011788;28;20482;-42
2022/10/30 00:05:15;;;;;;;20.92;7.32;;;;;;;19.79;64.20;101681.25;5013634;28;20065;-40
2022/10/30 00:07:41;;;;;;;20.27;7.28;;;;;;;19.73;64.40;101694.53;5013590;28;20034;-40
2022/10/30 00:10:07;;;;;;;18.33;7.07;;;;;;;19.56;65.52;101705.31;5011829;28;20030;-40
2022/10/30 00:12:32;;;;;;;13.07;6.72;;;;;;;19.64;64.77;101695.50;5011770;28;20053;-41
2022/10/30 00:14:58;;;;;;;16.80;7.13;;;;;;;19.56;65.27;101692.09;5012119;28;20072;-40
2022/10/30 00:17:23;;;;;;;19.15;7.32;;;;;;;19.53;65.21;101694.75;5011910;28;20033;-39
2022/10/30 00:19:48;;;;;;;17.65;7.00;;;;;;;19.46;65.90;101708.06;5012234;28;20382;-40
2022/10/30 00:22:14;;;;;;;17.23;7.00;;;;;;;19.56;65.27;101702.66;5011587;28;20053;-40
2022/10/30 00:24:39;;;;;;;16.52;6.72;;;;;;;19.52;65.20;101702.72;5012219;28;20038;-40
2022/10/30 00:27:04;;;;;;;16.02;7.00;;;;;;;19.48;65.10;101709.78;5012818;28;20044;-40
2022/10/30 00:29:30;;;;;;;15.25;6.60;;;;;;;19.43;65.12;101706.28;5012753;28;20022;-41
2022/10/30 00:31:55;;;;;;;17.15;6.75;;;;;;;19.40;65.40;101707.19;5012534;28;20034;-40
2022/10/30 00:34:20;;;;;;;17.15;7.10;;;;;;;19.39;65.50;101710.72;5016356;28;20022;-39
2022/10/30 00:36:46;;;;;;;12.65;6.93;;;;;;;19.39;65.52;101708.06;5014771;28;20113;-40
2022/10/30 00:39:11;;;;;;;18.92;7.18;;;;;;;19.36;65.53;101712.53;5015037;28;20026;-38
2022/10/30 00:41:38;;;;;;;17.75;7.15;;;;;;;19.33;65.76;101713.41;5014886;28;20025;-39
2022/10/30 00:44:42;;;;;;;18.13;7.15;;;;;;;19.29;65.99;101706.41;5013084;28;20508;-39
2022/10/30 00:47:20;;;;;;;15.18;7.25;;;;;;;19.30;65.85;101702.88;5006437;28;20033;-40
2022/10/30 00:50:00;;;;;;;14.80;6.85;;;;;;;19.27;66.11;101696.75;5011325;28;20033;-40
2022/10/30 00:52:30;;;;;;;15.20;7.10;;;;;;;19.29;65.93;101701.13;5011364;28;20444;-40
2022/10/30 00:55:00;;;;;;;20.98;7.20;;;;;;;19.26;66.12;101697.66;5011078;28;20048;-40
2022/10/30 00:57:26;;;;;;;18.23;6.30;;;;;;;19.25;65.97;101699.41;5010726;28;20033;-41
2022/10/30 00:59:51;;;;;;;16.30;6.90;;;;;;;19.24;66.11;101700.28;5010997;28;20022;-42
2022/10/30 01:02:20;;;;;;;15.50;7.18;;;;;;;19.23;66.11;101695.91;5010565;28;20022;-40
2022/10/30 01:04:47;;;;;;;16.20;6.88;;;;;;;19.20;66.16;101703.88;5011639;28;20026;-42
2022/10/30 01:07:16;;;;;;;16.77;7.47;;;;;;;19.16;66.39;101711.81;5011129;28;20025;-41
2022/10/30 01:09:41;;;;;;;17.90;7.35;;;;;;;19.16;66.35;101712.69;5010918;28;20060;-40
2022/10/30 01:12:07;;;;;;;18.17;7.60;;;;;;;19.06;66.89;101716.31;5010378;28;20057;-42
2022/10/30 01:14:40;;;;;;;16.45;7.50;;;;;;;19.04;67.03;101721.59;5010464;28;20022;-39
2022/10/30 01:17:29;;;;;;;16.88;6.85;;;;;;;19.10;66.66;101725.09;5010369;28;20068;-40
2022/10/30 01:20:18;;;;;;;15.75;7.20;;;;;;;18.98;67.04;101726.94;5010642;28;20033;-41
2022/10/30 01:22:55;;;;;;;18.50;7.45;;;;;;;19.04;66.76;101718.09;5009258;28;20604;-40
2022/10/30 01:25:40;;;;;;;20.27;7.15;;;;;;;19.01;66.95;101729.56;5010285;28;20030;-40
2022/10/30 01:28:12;;;;;;;16.33;6.85;;;;;;;19.04;66.82;101721.59;5009586;28;20062;-43
2022/10/30 01:30:42;;;;;;;13.63;7.28;;;;;;;19.03;66.93;101717.19;5010671;28;20034;-40
2022/10/30 01:33:27;;;;;;;16.92;7.20;;;;;;;18.99;67.25;101719.88;5011101;28;20022;-40
2022/10/30 01:36:12;;;;;;;16.17;7.32;;;;;;;19.04;66.95;101720.72;5011212;28;20034;-39
2022/10/30 01:38:53;;;;;;;16.48;7.32;;;;;;;19.05;66.90;101717.19;5011141;28;20025;-39
2022/10/30 01:41:18;;;;;;;15.52;7.40;;;;;;;19.06;66.73;101721.59;5010219;28;20121;-40
2022/10/30 01:43:46;;;;;;;19.63;7.78;;;;;;;18.94;67.06;101719.94;5010191;28;20100;-39
2022/10/30 01:46:53;;;;;;;18.23;7.45;;;;;;;18.96;67.09;101725.22;5010954;28;20026;-39
2022/10/30 01:49:38;;;;;;;13.60;6.97;;;;;;;18.94;67.19;101727.84;5002327;28;20038;-42
2022/10/30 01:52:27;;;;;;;17.40;7.00;;;;;;;18.94;67.19;101729.63;5011710;28;20022;-39
2022/10/30 01:55:02;;;;;;;16.13;7.25;;;;;;;18.92;66.88;101720.81;5012414;28;20026;-39
2022/10/30 01:57:36;;;;;;;15.68;7.00;;;;;;;18.88;66.96;101727.91;5014242;28;20026;-40
2022/10/30 02:00:05;;;;;;;;;;;;;;;18.81;66.93;101730.59;5011652;28;20022;-42
2022/10/30 02:02:31;;;;;;;15.15;7.07;;;;;;;18.77;66.98;101723.59;5010550;28;20346;-40
2022/10/30 02:04:58;;;;;;;18.60;7.30;;;;;;;18.78;66.96;101728.88;5010211;28;20113;-39
2022/10/30 02:07:24;;;;;;;17.35;6.90;;;;;;;18.75;66.91;101725.34;5009985;28;20079;-41
2022/10/30 02:09:53;;;;;;;15.10;7.20;;;;;;;18.64;67.61;101718.38;5012818;28;20029;-40
2022/10/30 02:12:20;;;;;;;17.90;7.28;;;;;;;18.61;67.50;101718.38;5013851;28;20026;-40
2022/10/30 02:14:48;;;;;;;14.75;7.28;;;;;;;18.57;67.66;101724.59;5014377;28;20029;-41
2022/10/30 02:17:14;;;;;;;20.20;8.18;;;;;;;18.54;68.22;101721.06;5013724;28;20026;-40
2022/10/30 02:19:39;;;;;;;16.27;7.60;;;;;;;18.57;68.11;101715.78;5013923;28;20049;-40
2022/10/30 02:22:05;;;;;;;18.77;7.97;;;;;;;18.57;68.19;101718.44;5013166;28;20117;-39
2022/10/30 02:24:31;;;;;;;13.90;7.45;;;;;;;18.57;67.98;101723.72;5013404;28;20057;-40
2022/10/30 02:26:57;;;;;;;16.42;7.82;;;;;;;18.54;67.92;101732.47;5014088;28;20351;-39
2022/10/30 02:29:22;;;;;;;15.85;7.63;;;;;;;18.54;68.04;101739.56;5028694;28;20041;-38
2022/10/30 02:31:47;;;;;;;13.45;7.18;;;;;;;18.57;68.08;101743.06;5013321;28;20037;-39
2022/10/30 02:34:13;;;;;;;15.05;7.15;;;;;;;18.55;68.17;101738.66;5013503;28;20445;-40
2022/10/30 02:36:38;;;;;;;14.05;7.50;;;;;;;18.57;67.93;101737.78;5013291;28;20461;-40
2022/10/30 02:39:05;;;;;;;20.95;7.45;;;;;;;18.55;68.27;101739.56;5013585;28;20030;-41
2022/10/30 02:41:30;;;;;;;15.40;7.47;;;;;;;18.57;68.08;101739.56;5013423;28;20421;-42
2022/10/30 02:43:55;;;;;;;17.55;7.88;;;;;;;18.56;68.04;101743.06;5012463;28;20026;-41
2022/10/30 02:46:21;;;;;;;16.58;8.20;;;;;;;18.46;68.44;101754.53;5013450;28;20026;-41
2022/10/30 02:48:46;;;;;;;17.83;7.38;;;;;;;18.49;68.01;101751.88;5013216;28;20030;-41
2022/10/30 02:51:12;;;;;;;16.70;7.90;;;;;;;18.47;68.21;101748.38;5013025;28;20509;-41
2022/10/30 02:53:37;;;;;;;14.63;7.47;;;;;;;18.42;68.19;101745.75;5013218;28;20501;-40
2022/10/30 02:56:05;;;;;;;19.27;8.00;;;;;;;18.39;68.16;101748.41;5013367;28;20041;-40
2022/10/30 02:58:30;;;;;;;17.20;8.00;;;;;;;18.34;68.52;101744.94;5013375;28;20021;-40
2022/10/30 03:00:56;;;;;;;17.83;7.70;;;;;;;18.36;68.33;101744.94;5013018;28;20022;-40
2022/10/30 03:03:21;;;;;;;18.90;8.02;;;;;;;18.35;68.48;101737.88;5013521;28;20065;-42
2022/10/30 03:05:46;;;;;;;16.52;7.95;;;;;;;18.33;68.37;101737.00;5028161;22;20052;-44
2022/10/30 03:08:12;;;;;;;16.65;7.43;;;;;;;18.28;68.36;101738.78;5013175;28;20382;-43
2022/10/30 03:10:37;;;;;;;14.57;7.22;;;;;;;18.25;68.28;101732.63;5012577;28;20030;-42
2022/10/30 03:13:02;;;;;;;18.20;7.30;;;;;;;18.25;68.12;101732.63;5013147;28;20359;-44
2022/10/30 03:15:27;;;;;;;17.75;8.25;;;;;;;18.21;68.21;101728.25;5027982;28;20346;-43
2022/10/30 03:17:53;;;;;;;20.05;7.65;;;;;;;18.17;68.33;101720.38;5013185;28;20018;-42
2022/10/30 03:20:18;;;;;;;18.20;7.90;;;;;;;18.13;68.54;101724.78;5012215;28;20037;-43
2022/10/30 03:22:44;;;;;;;16.88;7.78;;;;;;;18.06;68.58;101728.31;5012581;28;20026;-46
2022/10/30 03:25:09;;;;;;;17.13;7.60;;;;;;;17.97;69.04;101733.63;5012918;28;20033;-45
2022/10/30 03:27:34;;;;;;;15.00;7.55;;;;;;;17.96;68.72;101731.00;5012807;28;20032;-44
2022/10/30 03:30:00;;;;;;;15.00;8.07;;;;;;;17.92;68.83;101731.91;5012415;28;20065;-42
2022/10/30 03:32:25;;;;;;;15.73;8.07;;;;;;;17.91;68.80;101725.75;5012408;28;20014;-42
2022/10/30 03:34:50;;;;;;;19.70;8.02;;;;;;;17.91;68.79;101733.66;5012510;28;20028;-42
2022/10/30 03:37:15;;;;;;;18.27;7.88;;;;;;;17.87;69.11;101725.75;5012314;28;20509;-43
2022/10/30 03:39:41;;;;;;;17.65;8.15;;;;;;;17.86;69.64;101719.59;5013911;28;20041;-43
2022/10/30 03:42:06;;;;;;;17.60;7.97;;;;;;;17.90;69.26;101720.47;5014066;28;20053;-43
2022/10/30 03:44:31;;;;;;;18.42;8.38;;;;;;;17.89;69.69;101724.84;5029411;28;20072;-43
2022/10/30 03:46:57;;;;;;;17.75;7.95;;;;;;;17.94;69.46;101728.34;5014355;28;20034;-42
2022/10/30 03:49:22;;;;;;;15.05;7.45;;;;;;;17.96;69.61;101731.88;5013015;28;20022;-43
2022/10/30 03:51:48;;;;;;;18.95;7.57;;;;;;;17.95;69.41;101731.88;5011267;28;20194;-43
2022/10/30 03:54:13;;;;;;;19.70;7.35;;;;;;;17.92;69.28;101735.41;5011918;28;20490;-44
2022/10/30 03:56:38;;;;;;;18.25;7.40;;;;;;;17.90;69.07;101731.91;5011568;28;20474;-45
2022/10/30 03:59:03;;;;;;;17.50;7.43;;;;;;;17.87;69.29;101739.81;5026659;28;20076;-45
2022/10/30 04:01:29;;;;;;;15.45;7.82;;;;;;;17.83;69.42;101738.06;5011495;28;20367;-44
2022/10/30 04:03:54;;;;;;;19.23;8.48;;;;;;;17.82;69.59;101733.66;5011590;28;20018;-44
2022/10/30 04:06:19;;;;;;;16.73;7.72;;;;;;;17.82;69.48;101737.19;5011292;28;20037;-44
2022/10/30 04:08:45;;;;;;;21.13;8.00;;;;;;;17.86;69.61;101732.81;5011252;28;20026;-43
2022/10/30 04:11:10;;;;;;;15.20;8.32;;;;;;;17.85;70.39;101736.31;5011266;28;20026;-45
2022/10/30 04:13:36;;;;;;;16.08;8.75;;;;;;;17.86;70.02;101743.34;5011419;28;20172;-43
2022/10/30 04:16:02;;;;;;;15.43;8.15;;;;;;;17.92;69.76;101742.44;5011235;28;20105;-45
2022/10/30 04:18:27;;;;;;;14.98;7.90;;;;;;;17.85;69.61;101741.59;5010184;28;20029;-45
2022/10/30 04:20:53;;;;;;;17.02;8.13;;;;;;;17.80;69.42;101740.72;5011234;28;20030;-43
2022/10/30 04:23:20;;;;;;;19.00;8.07;;;;;;;17.76;69.65;101733.69;5011273;28;20375;-45
2022/10/30 04:25:45;;;;;;;16.30;8.43;;;;;;;17.72;70.00;101730.19;5011427;28;20037;-43
2022/10/30 04:28:11;;;;;;;15.98;8.75;;;;;;;17.74;70.21;101731.06;5011285;28;20073;-44
2022/10/30 04:30:37;;;;;;;19.02;7.85;;;;;;;17.77;69.87;101723.13;5011329;28;20537;-43
2022/10/30 04:33:05;;;;;;;16.75;7.90;;;;;;;17.76;69.80;101718.75;5026360;28;20406;-46
2022/10/30 04:35:33;;;;;;;20.60;8.88;;;;;;;17.73;69.76;101720.53;5011173;28;20190;-44
2022/10/30 04:38:00;;;;;;;18.25;8.63;;;;;;;17.77;69.59;101722.25;5011013;28;20026;-44
2022/10/30 04:40:28;;;;;;;17.55;8.10;;;;;;;17.77;69.79;101720.50;5010594;28;20029;-45
2022/10/30 04:42:54;;;;;;;17.77;8.32;;;;;;;17.76;69.89;101709.94;5010931;28;20053;-45
2022/10/30 04:45:20;;;;;;;19.67;8.35;;;;;;;17.70;69.95;101708.22;5011009;28;20073;-44
2022/10/30 04:47:45;;;;;;;19.27;8.38;;;;;;;17.71;70.25;101701.19;5010611;28;20032;-44
2022/10/30 04:50:12;;;;;;;15.13;8.27;;;;;;;17.75;70.03;101706.44;5010614;28;20030;-45
2022/10/30 04:52:37;;;;;;;15.63;8.30;;;;;;;17.75;69.65;101703.78;5010323;28;20033;-46
2022/10/30 04:55:03;;;;;;;15.95;8.02;;;;;;;17.72;69.75;101701.19;5011244;28;20029;-45
2022/10/30 04:57:30;;;;;;;16.23;8.10;;;;;;;17.69;69.50;101706.44;5009193;28;20061;-44
2022/10/30 04:59:56;;;;;;;17.58;8.23;;;;;;;17.64;69.81;101710.88;5010366;28;20021;-46
2022/10/30 05:02:21;;;;;;;17.55;8.10;;;;;;;17.59;69.93;101720.50;5010655;28;20033;-43
2022/10/30 05:04:46;;;;;;;17.08;8.52;;;;;;;17.57;70.43;101724.91;5011133;28;20460;-43
2022/10/30 05:07:13;;;;;;;19.25;8.82;;;;;;;17.56;70.41;101722.28;5010690;28;20033;-44
2022/10/30 05:09:38;;;;;;;18.00;8.48;;;;;;;17.51;70.51;101718.75;5010754;28;20110;-43
2022/10/30 05:12:04;;;;;;;17.92;8.95;;;;;;;17.50;70.47;101722.31;5010446;28;20109;-43
2022/10/30 05:14:30;;;;;;;16.50;8.82;;;;;;;17.52;70.39;101725.78;5010954;28;20092;-45
2022/10/30 05:16:56;;;;;;;17.52;8.60;;;;;;;17.45;70.66;101725.78;5010964;28;20038;-44
2022/10/30 05:19:21;;;;;;;21.95;8.82;;;;;;;17.47;70.36;101717.91;5010379;28;20133;-43
2022/10/30 05:21:46;;;;;;;18.13;8.18;;;;;;;17.47;70.38;101715.25;5010032;28;20026;-44
2022/10/30 05:24:12;;;;;;;15.65;7.82;;;;;;;17.47;70.26;101722.28;5010492;28;20040;-44
2022/10/30 05:26:37;;;;;;;16.58;8.57;;;;;;;17.47;70.19;101717.00;5010505;28;20026;-46
2022/10/30 05:29:02;;;;;;;18.92;8.50;;;;;;;17.47;70.40;101724.94;5010249;28;20037;-43
2022/10/30 05:31:28;;;;;;;16.05;7.95;;;;;;;17.43;70.37;101711.75;5010347;28;20030;-44
2022/10/30 05:33:53;;;;;;;17.27;8.32;;;;;;;17.40;70.29;101713.50;5010559;28;20022;-44
2022/10/30 05:36:18;;;;;;;19.00;8.20;;;;;;;17.39;69.55;101715.25;5010629;28;20048;-42
2022/10/30 05:38:45;;;;;;;16.65;8.05;;;;;;;17.37;69.94;101719.69;5010211;28;20112;-41
2022/10/30 05:41:10;;;;;;;18.33;8.38;;;;;;;17.37;70.09;101724.94;5010456;28;20052;-46
2022/10/30 05:43:36;;;;;;;20.00;8.60;;;;;;;17.33;70.27;101733.72;5011185;28;20343;-42
2022/10/30 05:46:01;;;;;;;18.50;8.60;;;;;;;17.30;70.87;101728.47;5014116;28;20026;-43
2022/10/30 05:48:26;;;;;;;19.65;9.02;;;;;;;17.35;70.81;101733.72;5014071;28;20112;-41
2022/10/30 05:50:54;;;;;;;20.50;8.80;;;;;;;17.33;70.82;101739.00;5014118;28;20032;-42
2022/10/30 05:53:19;;;;;;;16.67;8.57;;;;;;;17.38;70.49;101736.38;5014088;28;20379;-46
2022/10/30 05:55:45;;;;;;;18.92;8.60;;;;;;;17.36;70.49;101739.00;5013990;28;20033;-44
2022/10/30 05:58:10;;;;;;;19.05;8.27;;;;;;;17.36;70.32;101733.72;5014022;28;20026;-43
2022/10/30 06:00:36;;;;;;;18.38;8.55;;;;;;;17.31;70.97;101732.88;5013930;28;20300;-47
2022/10/30 06:03:03;;;;;;;17.58;8.20;;;;;;;17.37;70.57;101737.25;5013301;28;20025;-43
2022/10/30 06:05:30;;;;;;;18.10;8.80;;;;;;;17.36;71.04;101735.50;5014274;28;20037;-45
2022/10/30 06:07:56;;;;;;;18.45;8.25;;;;;;;17.38;70.72;101729.31;5014824;28;20378;-44
2022/10/30 06:10:22;;;;;;;16.23;8.57;;;;;;;17.38;70.66;101720.56;5014778;28;20085;-40
2022/10/30 06:12:55;;;;;;;14.90;8.30;;;;;;;17.40;70.25;101726.69;5014478;28;20139;-45
2022/10/30 06:15:21;;;;;;;19.95;8.35;;;;;;;17.37;70.45;101739.88;5016465;28;20025;-47
2022/10/30 06:17:46;;;;;;;18.42;8.10;;;;;;;17.35;70.57;101739.88;5017795;28;20018;-48
2022/10/30 06:20:11;;;;;;;19.40;8.20;;;;;;;17.32;70.77;101733.75;5013957;28;20036;-46
2022/10/30 06:22:37;;;;;;;16.00;7.57;;;;;;;17.30;70.60;101740.75;5013877;28;20026;-48
2022/10/30 06:25:02;;;;;;;18.58;8.32;;;;;;;17.29;70.52;101746.91;5013772;28;20026;-43
2022/10/30 06:27:28;;;;;;;17.45;9.13;;;;;;;17.25;71.01;101748.69;5012980;28;20030;-43
2022/10/30 06:29:53;;;;;;;19.88;9.30;;;;;;;17.19;71.37;101748.69;5013214;28;20297;-43
2022/10/30 06:32:19;;;;;;;18.42;8.75;;;;;;;17.28;70.98;101746.03;5012739;28;20148;-44
2022/10/30 06:34:45;;;;;;;20.75;9.18;;;;;;;17.24;71.46;101748.66;5013155;28;20022;-45
2022/10/30 06:37:10;;;;;;;17.80;8.88;;;;;;;17.33;71.09;101741.63;5013323;28;20637;-43
2022/10/30 06:39:35;;;;;;;19.58;8.70;;;;;;;17.38;71.06;101736.38;5013115;28;20504;-42
2022/10/30 06:42:01;;;;;;;16.95;8.13;;;;;;;17.43;70.81;101732.84;5012857;28;20033;-44
2022/10/30 06:44:26;;;;;;;17.08;8.80;;;;;;;17.47;70.96;101736.34;5011837;28;20033;-44
2022/10/30 06:46:52;;;;;;;16.52;8.40;;;;;;;17.52;70.86;101738.97;5012737;28;20030;-44
2022/10/30 06:49:17;;;;;;;15.95;8.48;;;;;;;17.53;70.83;101736.34;5012859;28;20080;-44
2022/10/30 06:51:43;;;;;;;21.92;8.38;;;;;;;17.56;70.77;101739.00;5012494;28;20109;-46
2022/10/30 06:54:08;;;;;;;18.05;8.32;;;;;;;17.57;70.73;101735.44;5013053;28;20037;-45
2022/10/30 06:56:33;;;;;;;20.55;9.40;;;;;;;17.59;70.66;101735.44;5012921;28;20025;-46
2022/10/30 06:58:59;;;;;;;19.20;8.85;;;;;;;17.65;70.84;101736.34;5012818;28;20092;-43
2022/10/30 07:01:24;;;;;;;20.50;8.90;;;;;;;17.77;70.70;101724.91;5012466;28;20029;-45
2022/10/30 07:03:49;;;;;;;20.55;8.95;;;;;;;17.86;70.74;101722.25;5012717;28;20649;-43
2022/10/30 07:06:14;;;;;;;17.27;8.73;;;;;;;17.92;70.63;101719.59;5012498;28;20029;-43
2022/10/30 07:08:40;;;;;;;18.95;8.65;;;;;;;18.15;70.40;101723.00;5012625;28;20578;-44
2022/10/30 07:11:05;;;;;;;18.33;8.65;;;;;;;18.23;69.91;101723.00;5012570;28;20117;-44
2022/10/30 07:13:30;;;;;;;18.58;8.80;;;;;;;18.28;69.67;101731.75;5012911;28;20022;-44
2022/10/30 07:15:58;;;;;;;16.42;8.52;;;;;;;18.29;69.23;101735.28;5012591;28;20027;-44
2022/10/30 07:18:23;;;;;;;16.17;8.40;;;;;;;18.47;68.98;101738.72;5012904;28;20030;-43
2022/10/30 07:20:53;;;;;;;19.08;8.27;;;;;;;18.48;68.50;101737.78;5012236;28;20546;-45
2022/10/30 07:23:18;;;;;;;18.27;8.50;;;;;;;18.58;68.27;101734.28;5012599;28;20063;-45
2022/10/30 07:25:43;;;;;;;15.45;8.40;;;;;;;18.70;67.79;101733.31;5013164;28;20532;-44
2022/10/30 07:28:08;;;;;;;18.13;8.38;;;;;;;18.77;67.57;101735.03;5013583;28;20068;-42
2022/10/30 07:30:34;;;;;;;16.58;8.18;;;;;;;18.77;67.42;101739.44;5013090;28;20022;-44
2022/10/30 07:33:02;;;;;;;20.85;8.82;;;;;;;18.75;67.42;101736.78;5014164;28;20030;-43
2022/10/30 07:35:28;;;;;;;17.20;8.65;;;;;;;18.69;67.23;101742.13;5013800;28;20451;-45
2022/10/30 07:37:54;;;;;;;21.27;9.20;;;;;;;18.70;67.36;101740.34;5014453;28;20457;-44
2022/10/30 07:40:20;;;;;;;18.10;8.40;;;;;;;18.81;67.52;101749.09;5013698;28;20033;-43
2022/10/30 07:42:45;;;;;;;17.35;8.75;;;;;;;18.95;67.81;101739.31;5014405;28;20080;-42
2022/10/30 07:45:11;;;;;;;18.13;9.25;;;;;;;18.98;67.45;101745.44;5012316;28;20029;-43
2022/10/30 07:47:42;;;;;;;19.73;9.18;;;;;;;19.07;66.94;101739.22;5012052;28;20025;-44
2022/10/30 07:50:09;;;;;;;19.63;8.82;;;;;;;19.19;66.74;101735.59;5011682;28;20030;-46
2022/10/30 07:52:34;;;;;;;20.42;9.38;;;;;;;19.33;66.53;101739.00;5011961;28;20297;-45
2022/10/30 07:55:00;;;;;;;18.38;9.52;;;;;;;19.44;66.04;101743.31;5011868;28;20021;-44
2022/10/30 07:57:25;;;;;;;17.42;9.05;;;;;;;19.59;65.05;101739.66;5011443;28;20482;-42
2022/10/30 07:59:50;;;;;;;18.33;8.98;;;;;;;19.73;65.49;101743.03;5011540;28;20021;-44
2022/10/30 08:02:15;;;;;;;19.88;8.88;;;;;;;19.82;64.92;101748.22;5011165;28;20018;-45
2022/10/30 08:04:41;;;;;;;18.38;9.25;;;;;;;19.81;64.39;101754.44;5011342;28;20453;-43
2022/10/30 08:07:06;;;;;;;18.23;9.45;;;;;;;19.98;63.97;101756.00;5011310;28;20052;-43
2022/10/30 08:09:32;;;;;;;23.45;9.40;;;;;;;20.00;64.00;101749.81;5011546;28;20022;-43
2022/10/30 08:11:57;;;;;;;20.48;10.38;;;;;;;19.92;64.08;101750.78;5012930;28;20129;-43
2022/10/30 08:14:22;;;;;;;24.13;10.38;;;;;;;19.96;64.26;101769.25;5012703;28;20558;-44
2022/10/30 08:16:49;;;;;;;17.30;9.20;;;;;;;19.99;64.15;101761.28;5011435;28;20036;-43
2022/10/30 08:19:14;;;;;;;20.73;9.50;;;;;;;20.11;63.87;101768.22;5010654;28;20470;-43
2022/10/30 08:21:40;;;;;;;19.10;10.13;;;;;;;20.16;63.83;101769.03;5012353;28;20067;-45
2022/10/30 08:24:05;;;;;;;20.35;9.50;;;;;;;20.27;63.64;101777.72;5011431;28;20057;-44
2022/10/30 08:26:30;;;;;;;18.13;9.63;;;;;;;20.33;63.69;101768.84;5011780;28;20049;-47
2022/10/30 08:28:56;;;;;;;25.75;10.32;;;;;;;20.36;63.34;101766.19;5013421;28;20476;-45
2022/10/30 08:31:21;;;;;;;22.40;10.10;;;;;;;20.42;63.22;101776.69;5012348;28;20030;-45
2022/10/30 08:33:46;;;;;;;22.42;9.80;;;;;;;20.46;63.15;101773.97;5013072;28;20030;-45
2022/10/30 08:36:12;;;;;;;23.08;10.00;;;;;;;20.51;63.20;101772.13;5013159;28;20101;-44
2022/10/30 08:38:37;;;;;;;21.50;10.00;;;;;;;20.46;63.00;101766.03;5012553;28;20049;-46
2022/10/30 08:41:02;;;;;;;20.92;10.93;;;;;;;20.52;63.18;101757.13;5011639;28;20025;-45
2022/10/30 08:43:28;;;;;;;20.33;10.43;;;;;;;20.53;62.81;101749.16;5011427;28;20029;-43
2022/10/30 08:45:57;;;;;;;23.45;10.27;;;;;;;20.59;62.69;101754.38;5011570;28;20030;-43
2022/10/30 08:48:22;;;;;;;22.35;10.52;;;;;;;20.58;62.63;101752.63;5011588;28;20036;-46
2022/10/30 08:50:47;;;;;;;22.80;10.48;;;;;;;20.63;62.88;101765.78;5012653;28;20382;-43
2022/10/30 08:53:14;;;;;;;19.13;10.38;;;;;;;20.59;62.80;101770.28;5013760;28;20037;-45
2022/10/30 08:55:40;;;;;;;27.15;10.82;;;;;;;20.60;62.62;101764.06;5012466;28;20021;-46
2022/10/30 08:58:05;;;;;;;22.00;10.85;;;;;;;20.66;62.58;101763.13;5016951;28;20481;-45
2022/10/30 09:00:30;;;;;;;22.38;10.98;;;;;;;20.64;62.46;101767.56;5024862;28;20022;-45
2022/10/30 09:02:56;;;;;;;22.00;10.57;;;;;;;20.71;62.31;101766.56;5029414;28;20033;-47
2022/10/30 09:05:21;;;;;;;26.55;10.38;;;;;;;20.60;62.26;101771.16;5046416;22;20529;-44
2022/10/30 09:07:47;;;;;;;22.50;10.35;;;;;;;20.72;62.69;101770.09;5018144;28;20025;-46
2022/10/30 09:10:13;;;;;;;19.60;9.95;;;;;;;20.70;62.78;101771.88;5012646;28;20026;-44
2022/10/30 09:12:38;;;;;;;23.63;10.60;;;;;;;20.70;62.75;101777.19;5010552;28;20036;-42
2022/10/30 09:15:05;;;;;;;19.85;10.23;;;;;;;20.64;62.94;101772.84;5010927;28;20041;-45
2022/10/30 09:17:30;;;;;;;20.83;10.25;;;;;;;20.82;62.15;101766.41;5010179;28;20042;-43
2022/10/30 09:19:55;;;;;;;24.48;10.32;;;;;;;20.79;62.48;101767.34;5010123;28;20025;-44
2022/10/30 09:22:20;;;;;;;23.60;10.57;;;;;;;20.77;62.22;101774.44;5010302;28;20026;-43
2022/10/30 09:24:46;;;;;;;25.50;10.40;;;;;;;20.91;62.30;101768.94;5010405;28;20026;-44
2022/10/30 09:27:11;;;;;;;19.50;10.68;;;;;;;20.85;61.98;101772.56;5010320;28;20030;-47
2022/10/30 09:29:36;;;;;;;24.52;10.70;;;;;;;20.80;61.94;101774.38;5010159;28;20034;-43
2022/10/30 09:32:03;;;;;;;28.70;10.88;;;;;;;20.83;61.80;101774.34;5009813;28;20359;-49
2022/10/30 09:34:29;;;;;;;24.48;11.10;;;;;;;20.99;61.86;101769.66;5010057;28;20026;-42
2022/10/30 09:36:55;;;;;;;26.33;10.27;;;;;;;21.12;61.65;101773.88;5010090;28;20176;-44
2022/10/30 09:39:20;;;;;;;25.20;10.73;;;;;;;21.13;61.50;101767.69;5010294;28;20029;-46
2022/10/30 09:42:25;;;;;;;31.60;11.20;;;;;;;21.08;61.17;101766.00;5010080;28;20026;-42
2022/10/30 09:45:27;;;;;;;24.08;10.50;;;;;;;20.92;61.39;101760.09;5010008;28;20053;-45
2022/10/30 09:48:05;;;;;;;19.80;10.40;;;;;;;21.19;61.16;101764.97;5010420;28;20038;-45
2022/10/30 09:50:45;;;;;;;21.20;10.43;;;;;;;21.39;60.38;101765.53;5012175;28;20030;-48
2022/10/30 09:53:24;;;;;;;23.38;10.57;;;;;;;21.47;60.50;101767.19;5010416;28;20033;-44
2022/10/30 09:56:03;;;;;;;26.75;10.57;;;;;;;21.44;60.00;101770.75;5011914;28;20033;-44
2022/10/30 09:58:51;;;;;;;20.95;10.18;;;;;;;21.64;59.81;101763.31;5013144;28;20014;-46
2022/10/30 10:01:25;;;;;;;25.52;10.82;;;;;;;21.55;60.38;101767.91;5012926;28;20037;-44
2022/10/30 10:04:14;;;;;;;23.13;10.25;;;;;;;21.72;59.35;101758.72;5017271;28;20026;-46
2022/10/30 10:06:43;;;;;;;22.58;10.57;;;;;;;21.53;59.70;101751.16;5014583;28;20053;-42
2022/10/30 10:09:18;;;;;;;22.17;10.77;;;;;;;21.69;59.73;101753.50;5013195;28;20037;-44
2022/10/30 10:11:52;;;;;;;18.85;9.85;;;;;;;21.75;59.61;101757.81;5013000;28;20109;-43
2022/10/30 10:14:25;;;;;;;21.30;10.32;;;;;;;21.98;58.75;101762.69;5013585;28;20565;-43
2022/10/30 10:16:55;;;;;;;22.10;9.63;;;;;;;21.84;59.11;101769.13;5013065;28;20030;-44
2022/10/30 10:19:43;;;;;;;24.67;10.07;;;;;;;22.05;59.08;101767.88;5010158;28;20022;-47
2022/10/30 10:22:35;;;;;;;22.33;9.65;;;;;;;22.13;59.07;101767.72;5012261;28;20113;-43
2022/10/30 10:25:05;;;;;;;24.25;10.10;;;;;;;22.20;58.68;101759.56;5010364;28;20053;-46
2022/10/30 10:28:04;;;;;;;24.88;9.90;;;;;;;22.25;58.36;101755.06;5011023;28;20061;-42
2022/10/30 10:31:13;;;;;;;18.83;9.30;;;;;;;22.28;57.95;101751.47;5012147;28;20030;-44
2022/10/30 10:34:19;;;;;;;23.38;9.88;;;;;;;22.19;58.51;101749.88;4975747;28;20462;-44
2022/10/30 10:36:56;;;;;;;17.80;9.27;;;;;;;22.35;58.05;101752.22;5013378;28;20057;-46
2022/10/30 10:39:50;;;;;;;24.77;9.77;;;;;;;22.39;57.82;101749.44;5013435;28;20367;-46
2022/10/30 10:42:27;;;;;;;21.52;9.30;;;;;;;22.44;57.71;101746.72;5013020;28;20029;-47
2022/10/30 10:44:59;;;;;;;20.08;8.98;;;;;;;22.44;57.48;101754.69;4995584;28;20030;-43
2022/10/30 10:47:35;;;;;;;20.40;9.02;;;;;;;22.48;57.38;101748.38;5013352;28;20049;-45
2022/10/30 10:50:13;;;;;;;18.77;8.65;;;;;;;22.63;57.21;101743.59;5012777;28;20037;-44
2022/10/30 10:52:46;;;;;;;21.20;9.50;;;;;;;22.64;57.41;101739.16;5012621;28;20033;-44
2022/10/30 10:55:22;;;;;;;20.42;8.77;;;;;;;22.74;57.02;101740.75;5013945;28;20090;-44
2022/10/30 10:57:50;;;;;;;22.98;9.43;;;;;;;22.76;57.08;101743.34;5013113;28;20109;-45
2022/10/30 11:00:19;;;;;;;27.60;9.60;;;;;;;22.77;56.85;101740.66;5013025;28;20021;-42
2022/10/30 11:02:58;;;;;;;21.02;8.98;;;;;;;22.78;56.69;101733.56;5013104;28;20027;-46
2022/10/30 11:05:48;;;;;;;21.50;8.73;;;;;;;22.49;58.62;101735.06;5015624;28;20085;-46
2022/10/30 11:08:32;;;;;;;20.35;8.52;;;;;;;22.65;57.94;101730.25;5015603;28;20041;-45
2022/10/30 11:10:59;;;;;;;20.63;7.80;;;;;;;22.81;57.47;101731.69;5018503;28;20045;-46
2022/10/30 11:13:35;;;;;;;14.05;7.50;;;;;;;23.03;56.38;101726.75;5013728;28;20411;-42
2022/10/30 11:16:16;;;;;;;17.13;8.02;;;;;;;23.09;56.36;101723.06;5012412;28;20478;-42
2022/10/30 11:18:43;;;;;;;20.10;7.78;;;;;;;23.21;55.57;101722.75;5012536;28;20029;-43
2022/10/30 11:21:10;;;;;;;15.45;7.43;;;;;;;23.31;55.30;101724.25;5012411;28;20053;-48
2022/10/30 11:23:41;;;;;;;19.27;7.40;;;;;;;23.41;55.15;101720.44;5012326;28;20478;-43